Weather at Incheon International Airport

Public forecast

Using degrees Celsius for public forecast. Weather courtesy of forecast.io.

Current aviation weather report (METAR) for Incheon International Airport

Retrieved 2021/04/17 20:30 UTC (16 minutes ago):

RKSI 172030Z 31016KT CAVOK 07/02 Q1016 NOSIG

Aviation forecast (TAF) for Incheon International Airport

Retrieved 2021/04/17 18:00 UTC (3 hours ago):

TAF RKSI 171700Z 1718/1824 30015G25KT CAVOK TN06/1721Z TX16/1805Z TN07/1821Z BECMG 1803/1804 27012KT BECMG 1807/1808 28015G25KT BECMG 1812/1813 26008KT BECMG 1820/1821 20010KT